sensor_id;sensor_type;location;lat;lon;timestamp;temperature;humidity
36132;DHT22;22185;48.738;9.324;2023-04-03T00:01:32;5.00;99.90
36132;DHT22;22185;48.738;9.324;2023-04-03T00:03:34;5.00;99.90
36132;DHT22;22185;48.738;9.324;2023-04-03T00:05:36;5.00;99.90
36132;DHT22;22185;48.738;9.324;2023-04-03T00:07:37;5.00;99.90
36132;DHT22;22185;48.738;9.324;2023-04-03T00:09:39;4.90;99.90
36132;DHT22;22185;48.738;9.324;2023-04-03T00:11:41;4.90;99.90
36132;DHT22;22185;48.738;9.324;2023-04-03T00:13:43;4.70;99.90
36132;DHT22;22185;48.738;9.324;2023-04-03T00:15:44;4.80;99.90
36132;DHT22;22185;48.738;9.324;2023-04-03T00:17:46;4.70;99.90
36132;DHT22;22185;48.738;9.324;2023-04-03T00:19:48;4.80;99.90
36132;DHT22;22185;48.738;9.324;2023-04-03T00:21:50;4.90;99.90
36132;DHT22;22185;48.738;9.324;2023-04-03T00:23:52;4.80;99.90
36132;DHT22;22185;48.738;9.324;2023-04-03T00:25:53;4.80;99.90
36132;DHT22;22185;48.738;9.324;2023-04-03T00:27:55;4.80;99.90
36132;DHT22;22185;48.738;9.324;2023-04-03T00:29:57;4.70;99.90
36132;DHT22;22185;48.738;9.324;2023-04-03T00:31:58;4.70;99.90
36132;DHT22;22185;48.738;9.324;2023-04-03T00:34:00;4.70;99.90
36132;DHT22;22185;48.738;9.324;2023-04-03T00:36:08;4.80;99.90
36132;DHT22;22185;48.738;9.324;2023-04-03T00:38:10;4.80;99.90
36132;DHT22;22185;48.738;9.324;2023-04-03T00:40:13;4.70;99.90
36132;DHT22;22185;48.738;9.324;2023-04-03T00:42:15;4.70;99.90
36132;DHT22;22185;48.738;9.324;2023-04-03T00:46:34;4.70;99.90
36132;DHT22;22185;48.738;9.324;2023-04-03T00:48:40;4.70;99.90
36132;DHT22;22185;48.738;9.324;2023-04-03T00:50:43;4.70;99.90
36132;DHT22;22185;48.738;9.324;2023-04-03T00:52:45;4.70;99.90
36132;DHT22;22185;48.738;9.324;2023-04-03T00:54:50;4.90;99.90
36132;DHT22;22185;48.738;9.324;2023-04-03T00:56:53;4.90;99.90
36132;DHT22;22185;48.738;9.324;2023-04-03T00:59:01;4.80;99.90
36132;DHT22;22185;48.738;9.324;2023-04-03T01:01:04;4.80;99.90
36132;DHT22;22185;48.738;9.324;2023-04-03T01:03:07;4.80;99.90
36132;DHT22;22185;48.738;9.324;2023-04-03T01:05:08;4.90;99.90
36132;DHT22;22185;48.738;9.324;2023-04-03T01:07:32;4.90;99.90
36132;DHT22;22185;48.738;9.324;2023-04-03T01:09:33;4.90;99.90
36132;DHT22;22185;48.738;9.324;2023-04-03T01:11:35;5.00;99.90
36132;DHT22;22185;48.738;9.324;2023-04-03T01:13:37;4.90;99.90
36132;DHT22;22185;48.738;9.324;2023-04-03T01:15:38;5.00;99.90
36132;DHT22;22185;48.738;9.324;2023-04-03T01:17:42;4.80;99.90
36132;DHT22;22185;48.738;9.324;2023-04-03T01:19:44;4.90;99.90
36132;DHT22;22185;48.738;9.324;2023-04-03T01:25:57;4.80;99.90
36132;DHT22;22185;48.738;9.324;2023-04-03T01:27:59;4.80;99.90
36132;DHT22;22185;48.738;9.324;2023-04-03T01:30:00;4.80;99.90
36132;DHT22;22185;48.738;9.324;2023-04-03T01:32:03;4.80;99.90
36132;DHT22;22185;48.738;9.324;2023-04-03T01:34:05;4.80;99.90
36132;DHT22;22185;48.738;9.324;2023-04-03T01:36:07;4.60;99.90
36132;DHT22;22185;48.738;9.324;2023-04-03T01:38:09;4.70;99.90
36132;DHT22;22185;48.738;9.324;2023-04-03T01:40:11;4.70;99.90
36132;DHT22;22185;48.738;9.324;2023-04-03T01:42:13;4.80;99.90
36132;DHT22;22185;48.738;9.324;2023-04-03T01:44:15;4.70;99.90
36132;DHT22;22185;48.738;9.324;2023-04-03T01:46:17;4.70;99.90
36132;DHT22;22185;48.738;9.324;2023-04-03T01:48:19;4.60;99.90
36132;DHT22;22185;48.738;9.324;2023-04-03T01:50:21;4.60;99.90
36132;DHT22;22185;48.738;9.324;2023-04-03T01:52:22;4.60;99.90
36132;DHT22;22185;48.738;9.324;2023-04-03T01:54:24;4.70;99.90
36132;DHT22;22185;48.738;9.324;2023-04-03T01:56:26;4.70;99.90
36132;DHT22;22185;48.738;9.324;2023-04-03T01:58:28;4.70;99.90
36132;DHT22;22185;48.738;9.324;2023-04-03T02:00:29;4.70;99.90
36132;DHT22;22185;48.738;9.324;2023-04-03T02:02:32;4.70;99.90
36132;DHT22;22185;48.738;9.324;2023-04-03T02:04:33;4.60;99.90
36132;DHT22;22185;48.738;9.324;2023-04-03T02:06:35;4.60;99.90
36132;DHT22;22185;48.738;9.324;2023-04-03T02:08:37;4.70;99.90
36132;DHT22;22185;48.738;9.324;2023-04-03T02:10:39;4.80;99.90
36132;DHT22;22185;48.738;9.324;2023-04-03T02:12:40;4.70;99.90
36132;DHT22;22185;48.738;9.324;2023-04-03T02:14:42;4.70;99.90
36132;DHT22;22185;48.738;9.324;2023-04-03T02:16:44;4.70;99.90
36132;DHT22;22185;48.738;9.324;2023-04-03T02:18:45;4.60;99.90
36132;DHT22;22185;48.738;9.324;2023-04-03T02:20:47;4.70;99.90
36132;DHT22;22185;48.738;9.324;2023-04-03T02:22:49;4.70;99.90
36132;DHT22;22185;48.738;9.324;2023-04-03T02:24:50;4.70;99.90
36132;DHT22;22185;48.738;9.324;2023-04-03T02:26:53;4.60;99.90
36132;DHT22;22185;48.738;9.324;2023-04-03T02:28:54;4.70;99.90
36132;DHT22;22185;48.738;9.324;2023-04-03T02:30:56;4.70;99.90
36132;DHT22;22185;48.738;9.324;2023-04-03T02:32:58;4.70;99.90
36132;DHT22;22185;48.738;9.324;2023-04-03T02:35:00;4.70;99.90
36132;DHT22;22185;48.738;9.324;2023-04-03T02:37:01;4.80;99.90
36132;DHT22;22185;48.738;9.324;2023-04-03T02:39:05;4.80;99.90
36132;DHT22;22185;48.738;9.324;2023-04-03T02:41:18;4.80;99.90
36132;DHT22;22185;48.738;9.324;2023-04-03T02:43:45;4.80;99.90
36132;DHT22;22185;48.738;9.324;2023-04-03T02:45:50;4.70;99.90
36132;DHT22;22185;48.738;9.324;2023-04-03T02:47:56;4.70;99.90
36132;DHT22;22185;48.738;9.324;2023-04-03T02:49:58;4.70;99.90
36132;DHT22;22185;48.738;9.324;2023-04-03T02:52:09;4.70;99.90
36132;DHT22;22185;48.738;9.324;2023-04-03T02:54:16;4.80;99.90
36132;DHT22;22185;48.738;9.324;2023-04-03T02:56:25;4.70;99.90
36132;DHT22;22185;48.738;9.324;2023-04-03T02:58:31;4.70;99.90
36132;DHT22;22185;48.738;9.324;2023-04-03T03:00:43;4.70;99.90
36132;DHT22;22185;48.738;9.324;2023-04-03T03:02:53;4.70;99.90
36132;DHT22;22185;48.738;9.324;2023-04-03T03:05:05;4.80;99.90
36132;DHT22;22185;48.738;9.324;2023-04-03T03:07:18;4.70;99.90
36132;DHT22;22185;48.738;9.324;2023-04-03T03:09:35;4.70;99.90
36132;DHT22;22185;48.738;9.324;2023-04-03T03:14:18;4.70;99.90
36132;DHT22;22185;48.738;9.324;2023-04-03T03:16:24;4.70;99.90
36132;DHT22;22185;48.738;9.324;2023-04-03T03:18:46;4.70;99.90
36132;DHT22;22185;48.738;9.324;2023-04-03T03:20:57;4.70;99.90
36132;DHT22;22185;48.738;9.324;2023-04-03T03:25:28;4.70;99.90
36132;DHT22;22185;48.738;9.324;2023-04-03T03:27:55;4.70;99.90
36132;DHT22;22185;48.738;9.324;2023-04-03T03:32:58;4.70;99.90
36132;DHT22;22185;48.738;9.324;2023-04-03T03:35:17;4.70;99.90
36132;DHT22;22185;48.738;9.324;2023-04-03T03:37:21;4.80;99.90
36132;DHT22;22185;48.738;9.324;2023-04-03T03:39:28;4.80;99.90
36132;DHT22;22185;48.738;9.324;2023-04-03T03:41:34;4.80;99.90
36132;DHT22;22185;48.738;9.324;2023-04-03T03:44:08;4.70;99.90
36132;DHT22;22185;48.738;9.324;2023-04-03T03:46:15;4.60;99.90
36132;DHT22;22185;48.738;9.324;2023-04-03T03:48:30;4.60;99.90
36132;DHT22;22185;48.738;9.324;2023-04-03T03:50:46;4.60;99.90
36132;DHT22;22185;48.738;9.324;2023-04-03T03:53:02;4.60;99.90
36132;DHT22;22185;48.738;9.324;2023-04-03T03:55:07;4.60;99.90
36132;DHT22;22185;48.738;9.324;2023-04-03T03:57:21;4.60;99.90
36132;DHT22;22185;48.738;9.324;2023-04-03T03:59:33;4.70;99.90
36132;DHT22;22185;48.738;9.324;2023-04-03T04:01:56;4.70;99.90
36132;DHT22;22185;48.738;9.324;2023-04-03T04:04:51;4.80;99.90
36132;DHT22;22185;48.738;9.324;2023-04-03T04:07:28;4.80;99.90
36132;DHT22;22185;48.738;9.324;2023-04-03T04:09:30;4.80;99.90
36132;DHT22;22185;48.738;9.324;2023-04-03T04:11:32;4.80;99.90
36132;DHT22;22185;48.738;9.324;2023-04-03T04:13:34;4.80;99.90
36132;DHT22;22185;48.738;9.324;2023-04-03T04:15:36;4.70;99.90
36132;DHT22;22185;48.738;9.324;2023-04-03T04:17:38;4.70;99.90
36132;DHT22;22185;48.738;9.324;2023-04-03T04:19:40;4.80;99.90
36132;DHT22;22185;48.738;9.324;2023-04-03T04:21:42;4.80;99.90
36132;DHT22;22185;48.738;9.324;2023-04-03T04:23:44;4.70;99.90
36132;DHT22;22185;48.738;9.324;2023-04-03T04:25:48;4.70;99.90
36132;DHT22;22185;48.738;9.324;2023-04-03T04:27:50;4.80;99.90
36132;DHT22;22185;48.738;9.324;2023-04-03T04:29:52;4.70;99.90
36132;DHT22;22185;48.738;9.324;2023-04-03T04:31:53;4.70;99.90
36132;DHT22;22185;48.738;9.324;2023-04-03T04:33:55;4.80;99.90
36132;DHT22;22185;48.738;9.324;2023-04-03T04:35:57;4.70;99.90
36132;DHT22;22185;48.738;9.324;2023-04-03T04:37:58;4.70;99.90
36132;DHT22;22185;48.738;9.324;2023-04-03T04:40:01;4.70;99.90
36132;DHT22;22185;48.738;9.324;2023-04-03T04:42:03;4.70;99.90
36132;DHT22;22185;48.738;9.324;2023-04-03T04:44:05;4.70;99.90
36132;DHT22;22185;48.738;9.324;2023-04-03T04:46:08;4.70;99.90
36132;DHT22;22185;48.738;9.324;2023-04-03T04:48:10;4.70;99.90
36132;DHT22;22185;48.738;9.324;2023-04-03T04:50:12;4.70;99.90
36132;DHT22;22185;48.738;9.324;2023-04-03T04:52:14;4.60;99.90
36132;DHT22;22185;48.738;9.324;2023-04-03T04:54:16;4.70;99.90
36132;DHT22;22185;48.738;9.324;2023-04-03T04:56:18;4.60;99.90
36132;DHT22;22185;48.738;9.324;2023-04-03T04:58:21;4.60;99.90
36132;DHT22;22185;48.738;9.324;2023-04-03T05:00:22;4.70;99.90
36132;DHT22;22185;48.738;9.324;2023-04-03T05:02:24;4.60;99.90
36132;DHT22;22185;48.738;9.324;2023-04-03T05:04:26;4.70;99.90
36132;DHT22;22185;48.738;9.324;2023-04-03T05:06:28;4.70;99.90
36132;DHT22;22185;48.738;9.324;2023-04-03T05:08:31;4.80;99.90
36132;DHT22;22185;48.738;9.324;2023-04-03T05:10:33;4.80;99.90
36132;DHT22;22185;48.738;9.324;2023-04-03T05:12:35;4.70;99.90
36132;DHT22;22185;48.738;9.324;2023-04-03T05:14:37;4.70;99.90
36132;DHT22;22185;48.738;9.324;2023-04-03T05:16:39;4.70;99.90
36132;DHT22;22185;48.738;9.324;2023-04-03T05:18:41;4.70;99.90
36132;DHT22;22185;48.738;9.324;2023-04-03T05:20:43;4.70;99.90
36132;DHT22;22185;48.738;9.324;2023-04-03T05:22:45;4.80;99.90
36132;DHT22;22185;48.738;9.324;2023-04-03T05:24:47;4.80;99.90
36132;DHT22;22185;48.738;9.324;2023-04-03T05:26:48;4.80;99.90
36132;DHT22;22185;48.738;9.324;2023-04-03T05:28:50;4.80;99.90
36132;DHT22;22185;48.738;9.324;2023-04-03T05:30:53;4.80;99.90
36132;DHT22;22185;48.738;9.324;2023-04-03T05:32:55;4.70;99.90
36132;DHT22;22185;48.738;9.324;2023-04-03T05:34:57;4.70;99.90
36132;DHT22;22185;48.738;9.324;2023-04-03T05:37:01;4.70;99.90
36132;DHT22;22185;48.738;9.324;2023-04-03T05:39:04;4.70;99.90
36132;DHT22;22185;48.738;9.324;2023-04-03T05:41:06;4.70;99.90
36132;DHT22;22185;48.738;9.324;2023-04-03T05:43:08;4.70;99.90
36132;DHT22;22185;48.738;9.324;2023-04-03T05:45:09;4.60;99.90
36132;DHT22;22185;48.738;9.324;2023-04-03T05:47:11;4.50;99.90
36132;DHT22;22185;48.738;9.324;2023-04-03T05:49:14;4.50;99.90
36132;DHT22;22185;48.738;9.324;2023-04-03T05:51:17;4.40;99.90
36132;DHT22;22185;48.738;9.324;2023-04-03T05:53:21;4.50;99.90
36132;DHT22;22185;48.738;9.324;2023-04-03T05:55:22;4.50;99.90
36132;DHT22;22185;48.738;9.324;2023-04-03T05:57:24;4.50;99.90
36132;DHT22;22185;48.738;9.324;2023-04-03T05:59:26;4.50;99.90
36132;DHT22;22185;48.738;9.324;2023-04-03T06:01:28;4.50;99.90
36132;DHT22;22185;48.738;9.324;2023-04-03T06:03:30;4.50;99.90
36132;DHT22;22185;48.738;9.324;2023-04-03T06:05:33;4.50;99.90
36132;DHT22;22185;48.738;9.324;2023-04-03T06:07:34;4.60;99.90
36132;DHT22;22185;48.738;9.324;2023-04-03T06:09:36;4.60;99.90
36132;DHT22;22185;48.738;9.324;2023-04-03T06:11:38;4.70;99.90
36132;DHT22;22185;48.738;9.324;2023-04-03T06:13:40;4.70;99.90
36132;DHT22;22185;48.738;9.324;2023-04-03T06:15:42;4.70;99.90
36132;DHT22;22185;48.738;9.324;2023-04-03T06:17:44;4.80;99.90
36132;DHT22;22185;48.738;9.324;2023-04-03T06:19:46;4.90;99.90
36132;DHT22;22185;48.738;9.324;2023-04-03T06:21:48;4.90;99.90
36132;DHT22;22185;48.738;9.324;2023-04-03T06:23:49;4.90;99.90
36132;DHT22;22185;48.738;9.324;2023-04-03T06:25:52;4.90;99.90
36132;DHT22;22185;48.738;9.324;2023-04-03T06:27:54;4.90;99.90
36132;DHT22;22185;48.738;9.324;2023-04-03T06:29:57;5.00;99.90
36132;DHT22;22185;48.738;9.324;2023-04-03T06:31:58;5.10;99.90
36132;DHT22;22185;48.738;9.324;2023-04-03T06:34:00;5.10;99.90
36132;DHT22;22185;48.738;9.324;2023-04-03T06:36:04;5.10;99.90
36132;DHT22;22185;48.738;9.324;2023-04-03T06:38:06;5.10;99.90
36132;DHT22;22185;48.738;9.324;2023-04-03T06:40:15;5.20;99.90
36132;DHT22;22185;48.738;9.324;2023-04-03T06:42:20;5.20;99.90
36132;DHT22;22185;48.738;9.324;2023-04-03T06:44:22;5.20;99.90
36132;DHT22;22185;48.738;9.324;2023-04-03T06:46:24;5.30;99.90
36132;DHT22;22185;48.738;9.324;2023-04-03T06:48:27;5.30;99.90
36132;DHT22;22185;48.738;9.324;2023-04-03T06:50:28;5.30;99.90
36132;DHT22;22185;48.738;9.324;2023-04-03T06:52:30;5.30;99.90
36132;DHT22;22185;48.738;9.324;2023-04-03T06:54:32;5.30;99.90
36132;DHT22;22185;48.738;9.324;2023-04-03T06:56:35;5.30;99.90
36132;DHT22;22185;48.738;9.324;2023-04-03T06:58:37;5.40;99.90
36132;DHT22;22185;48.738;9.324;2023-04-03T07:00:39;5.30;99.90
36132;DHT22;22185;48.738;9.324;2023-04-03T07:02:40;5.40;99.90
36132;DHT22;22185;48.738;9.324;2023-04-03T07:04:42;5.30;99.90
36132;DHT22;22185;48.738;9.324;2023-04-03T07:06:44;5.40;99.90
36132;DHT22;22185;48.738;9.324;2023-04-03T07:08:46;5.50;99.90
36132;DHT22;22185;48.738;9.324;2023-04-03T07:10:49;5.50;99.90
36132;DHT22;22185;48.738;9.324;2023-04-03T07:12:51;5.50;99.90
36132;DHT22;22185;48.738;9.324;2023-04-03T07:14:54;5.70;99.90
36132;DHT22;22185;48.738;9.324;2023-04-03T07:16:57;5.60;99.90
36132;DHT22;22185;48.738;9.324;2023-04-03T07:18:58;5.60;99.90
36132;DHT22;22185;48.738;9.324;2023-04-03T07:21:00;5.80;99.90
36132;DHT22;22185;48.738;9.324;2023-04-03T07:23:02;5.80;99.90
36132;DHT22;22185;48.738;9.324;2023-04-03T07:25:04;5.70;99.90
36132;DHT22;22185;48.738;9.324;2023-04-03T07:27:08;5.70;99.90
36132;DHT22;22185;48.738;9.324;2023-04-03T07:29:10;5.70;99.90
36132;DHT22;22185;48.738;9.324;2023-04-03T07:31:12;5.70;99.90
36132;DHT22;22185;48.738;9.324;2023-04-03T07:33:17;5.80;99.90
36132;DHT22;22185;48.738;9.324;2023-04-03T07:35:19;5.90;99.90
36132;DHT22;22185;48.738;9.324;2023-04-03T07:37:21;6.00;99.90
36132;DHT22;22185;48.738;9.324;2023-04-03T07:39:23;6.00;99.90
36132;DHT22;22185;48.738;9.324;2023-04-03T07:41:25;6.00;99.90
36132;DHT22;22185;48.738;9.324;2023-04-03T07:43:27;5.90;99.90
36132;DHT22;22185;48.738;9.324;2023-04-03T07:45:29;6.00;99.90
36132;DHT22;22185;48.738;9.324;2023-04-03T07:47:31;6.10;99.90
36132;DHT22;22185;48.738;9.324;2023-04-03T07:49:32;6.10;99.90
36132;DHT22;22185;48.738;9.324;2023-04-03T07:51:36;6.00;99.90
36132;DHT22;22185;48.738;9.324;2023-04-03T07:53:37;6.10;99.90
36132;DHT22;22185;48.738;9.324;2023-04-03T07:55:39;6.00;99.90
36132;DHT22;22185;48.738;9.324;2023-04-03T07:57:44;6.00;99.90
36132;DHT22;22185;48.738;9.324;2023-04-03T07:59:46;6.10;99.90
36132;DHT22;22185;48.738;9.324;2023-04-03T08:01:48;6.30;99.90
36132;DHT22;22185;48.738;9.324;2023-04-03T08:03:50;6.20;99.90
36132;DHT22;22185;48.738;9.324;2023-04-03T08:05:52;6.40;99.90
36132;DHT22;22185;48.738;9.324;2023-04-03T08:07:54;6.50;99.90
36132;DHT22;22185;48.738;9.324;2023-04-03T08:09:56;6.40;99.90
36132;DHT22;22185;48.738;9.324;2023-04-03T08:11:58;6.50;99.90
36132;DHT22;22185;48.738;9.324;2023-04-03T08:14:00;6.30;99.90
36132;DHT22;22185;48.738;9.324;2023-04-03T08:16:10;6.40;99.90
36132;DHT22;22185;48.738;9.324;2023-04-03T08:18:13;6.40;99.90
36132;DHT22;22185;48.738;9.324;2023-04-03T08:20:16;6.60;99.90
36132;DHT22;22185;48.738;9.324;2023-04-03T08:22:18;6.60;99.90
36132;DHT22;22185;48.738;9.324;2023-04-03T08:24:19;6.70;99.90
36132;DHT22;22185;48.738;9.324;2023-04-03T08:26:21;6.70;99.90
36132;DHT22;22185;48.738;9.324;2023-04-03T08:28:23;6.80;99.90
36132;DHT22;22185;48.738;9.324;2023-04-03T08:30:25;6.90;99.90
36132;DHT22;22185;48.738;9.324;2023-04-03T08:32:27;6.70;99.90
36132;DHT22;22185;48.738;9.324;2023-04-03T08:34:29;6.90;99.90
36132;DHT22;22185;48.738;9.324;2023-04-03T08:36:31;6.90;99.90
36132;DHT22;22185;48.738;9.324;2023-04-03T08:38:33;7.00;99.90
36132;DHT22;22185;48.738;9.324;2023-04-03T08:40:38;7.00;99.90
36132;DHT22;22185;48.738;9.324;2023-04-03T08:42:46;7.20;99.90
36132;DHT22;22185;48.738;9.324;2023-04-03T08:44:59;7.40;99.90
36132;DHT22;22185;48.738;9.324;2023-04-03T08:49:40;7.70;99.90
36132;DHT22;22185;48.738;9.324;2023-04-03T08:51:49;7.50;99.90
36132;DHT22;22185;48.738;9.324;2023-04-03T08:54:14;7.80;99.90
36132;DHT22;22185;48.738;9.324;2023-04-03T08:56:17;7.80;99.90
36132;DHT22;22185;48.738;9.324;2023-04-03T08:58:24;7.70;99.90
36132;DHT22;22185;48.738;9.324;2023-04-03T09:00:28;7.50;99.90
36132;DHT22;22185;48.738;9.324;2023-04-03T09:02:33;7.50;99.90
36132;DHT22;22185;48.738;9.324;2023-04-03T09:04:36;7.40;99.90
36132;DHT22;22185;48.738;9.324;2023-04-03T09:06:38;7.60;99.90
36132;DHT22;22185;48.738;9.324;2023-04-03T09:10:42;7.90;99.90
36132;DHT22;22185;48.738;9.324;2023-04-03T09:12:45;8.20;99.90
36132;DHT22;22185;48.738;9.324;2023-04-03T09:16:59;8.20;99.90
36132;DHT22;22185;48.738;9.324;2023-04-03T09:21:31;8.20;99.90
36132;DHT22;22185;48.738;9.324;2023-04-03T09:23:34;8.00;99.90
36132;DHT22;22185;48.738;9.324;2023-04-03T09:25:42;8.20;99.90
36132;DHT22;22185;48.738;9.324;2023-04-03T09:27:44;8.20;99.90
36132;DHT22;22185;48.738;9.324;2023-04-03T09:29:46;8.10;99.90
36132;DHT22;22185;48.738;9.324;2023-04-03T09:31:49;8.20;99.90
36132;DHT22;22185;48.738;9.324;2023-04-03T09:33:53;8.10;99.90
36132;DHT22;22185;48.738;9.324;2023-04-03T09:35:56;8.10;99.90
36132;DHT22;22185;48.738;9.324;2023-04-03T09:42:32;8.00;99.90
36132;DHT22;22185;48.738;9.324;2023-04-03T09:44:35;7.80;99.90
36132;DHT22;22185;48.738;9.324;2023-04-03T09:46:37;7.70;99.90
36132;DHT22;22185;48.738;9.324;2023-04-03T09:48:40;7.90;99.90
36132;DHT22;22185;48.738;9.324;2023-04-03T09:51:01;8.00;99.90
36132;DHT22;22185;48.738;9.324;2023-04-03T09:53:06;8.10;99.90
36132;DHT22;22185;48.738;9.324;2023-04-03T09:57:32;7.90;99.90
36132;DHT22;22185;48.738;9.324;2023-04-03T09:59:34;7.90;99.90
36132;DHT22;22185;48.738;9.324;2023-04-03T10:01:37;7.80;99.90
36132;DHT22;22185;48.738;9.324;2023-04-03T10:03:39;7.70;99.90
36132;DHT22;22185;48.738;9.324;2023-04-03T10:05:47;7.60;99.90
36132;DHT22;22185;48.738;9.324;2023-04-03T10:07:52;7.60;99.90
36132;DHT22;22185;48.738;9.324;2023-04-03T10:10:17;7.50;99.90
36132;DHT22;22185;48.738;9.324;2023-04-03T10:12:21;7.50;99.90
36132;DHT22;22185;48.738;9.324;2023-04-03T10:14:23;7.80;99.90
36132;DHT22;22185;48.738;9.324;2023-04-03T10:16:26;7.90;99.90
36132;DHT22;22185;48.738;9.324;2023-04-03T10:20:47;7.60;99.90
36132;DHT22;22185;48.738;9.324;2023-04-03T10:29:18;7.50;99.90
36132;DHT22;22185;48.738;9.324;2023-04-03T10:33:53;7.40;99.90
36132;DHT22;22185;48.738;9.324;2023-04-03T10:40:28;7.70;99.90
36132;DHT22;22185;48.738;9.324;2023-04-03T10:42:35;7.50;99.90
36132;DHT22;22185;48.738;9.324;2023-04-03T10:46:53;7.40;99.90
36132;DHT22;22185;48.738;9.324;2023-04-03T10:55:38;7.60;99.90
36132;DHT22;22185;48.738;9.324;2023-04-03T10:57:40;7.60;99.90
36132;DHT22;22185;48.738;9.324;2023-04-03T11:01:49;7.70;99.90
36132;DHT22;22185;48.738;9.324;2023-04-03T11:03:53;7.80;99.90
36132;DHT22;22185;48.738;9.324;2023-04-03T11:05:57;7.70;99.90
36132;DHT22;22185;48.738;9.324;2023-04-03T11:10:23;7.70;99.90
36132;DHT22;22185;48.738;9.324;2023-04-03T11:12:47;7.70;99.90
36132;DHT22;22185;48.738;9.324;2023-04-03T11:14:50;7.70;99.90
36132;DHT22;22185;48.738;9.324;2023-04-03T11:17:01;7.70;99.90
36132;DHT22;22185;48.738;9.324;2023-04-03T11:19:17;7.60;99.90
36132;DHT22;22185;48.738;9.324;2023-04-03T11:21:32;7.50;99.90
36132;DHT22;22185;48.738;9.324;2023-04-03T11:23:36;7.50;99.90
36132;DHT22;22185;48.738;9.324;2023-04-03T11:25:51;7.50;99.90
36132;DHT22;22185;48.738;9.324;2023-04-03T11:29:56;7.60;99.90
36132;DHT22;22185;48.738;9.324;2023-04-03T11:38:34;7.90;99.90
36132;DHT22;22185;48.738;9.324;2023-04-03T11:40:37;7.90;99.90
36132;DHT22;22185;48.738;9.324;2023-04-03T11:42:40;7.80;99.90
36132;DHT22;22185;48.738;9.324;2023-04-03T11:44:42;7.80;99.90
36132;DHT22;22185;48.738;9.324;2023-04-03T11:46:57;7.80;99.90
36132;DHT22;22185;48.738;9.324;2023-04-03T11:48:59;7.70;99.90
36132;DHT22;22185;48.738;9.324;2023-04-03T11:59:42;7.30;99.90
36132;DHT22;22185;48.738;9.324;2023-04-03T12:01:44;7.50;99.90
36132;DHT22;22185;48.738;9.324;2023-04-03T12:03:56;7.60;99.90
36132;DHT22;22185;48.738;9.324;2023-04-03T12:10:26;7.90;99.90
36132;DHT22;22185;48.738;9.324;2023-04-03T12:12:34;8.00;99.90
36132;DHT22;22185;48.738;9.324;2023-04-03T12:14:36;8.10;99.90
36132;DHT22;22185;48.738;9.324;2023-04-03T12:23:36;9.00;99.90
36132;DHT22;22185;48.738;9.324;2023-04-03T12:27:40;9.30;99.90
36132;DHT22;22185;48.738;9.324;2023-04-03T12:29:46;9.50;99.90
36132;DHT22;22185;48.738;9.324;2023-04-03T12:32:09;9.60;99.90
36132;DHT22;22185;48.738;9.324;2023-04-03T12:45:20;9.10;99.90
36132;DHT22;22185;48.738;9.324;2023-04-03T12:47:24;9.20;99.90
36132;DHT22;22185;48.738;9.324;2023-04-03T12:49:33;9.10;99.90
36132;DHT22;22185;48.738;9.324;2023-04-03T12:51:38;9.30;99.90
36132;DHT22;22185;48.738;9.324;2023-04-03T12:53:41;9.40;99.90
36132;DHT22;22185;48.738;9.324;2023-04-03T12:55:44;9.20;99.90
36132;DHT22;22185;48.738;9.324;2023-04-03T12:57:46;9.00;99.90
36132;DHT22;22185;48.738;9.324;2023-04-03T12:59:48;9.10;99.90
36132;DHT22;22185;48.738;9.324;2023-04-03T13:01:53;9.50;99.90
36132;DHT22;22185;48.738;9.324;2023-04-03T13:03:57;10.10;99.90
36132;DHT22;22185;48.738;9.324;2023-04-03T13:06:00;9.80;99.90
36132;DHT22;22185;48.738;9.324;2023-04-03T13:08:04;10.20;99.90
36132;DHT22;22185;48.738;9.324;2023-04-03T13:12:13;9.80;99.90
36132;DHT22;22185;48.738;9.324;2023-04-03T13:14:19;8.70;99.90
36132;DHT22;22185;48.738;9.324;2023-04-03T13:16:21;8.60;99.90
36132;DHT22;22185;48.738;9.324;2023-04-03T13:18:28;8.50;99.90
36132;DHT22;22185;48.738;9.324;2023-04-03T13:20:33;8.90;99.90
36132;DHT22;22185;48.738;9.324;2023-04-03T13:22:57;8.60;99.90
36132;DHT22;22185;48.738;9.324;2023-04-03T13:25:01;8.50;99.90
36132;DHT22;22185;48.738;9.324;2023-04-03T13:27:04;8.50;99.90
36132;DHT22;22185;48.738;9.324;2023-04-03T13:29:07;8.20;99.90
36132;DHT22;22185;48.738;9.324;2023-04-03T13:31:32;8.30;99.90
36132;DHT22;22185;48.738;9.324;2023-04-03T13:33:35;8.80;99.90
36132;DHT22;22185;48.738;9.324;2023-04-03T13:35:39;8.90;99.90
36132;DHT22;22185;48.738;9.324;2023-04-03T13:37:52;9.00;99.90
36132;DHT22;22185;48.738;9.324;2023-04-03T13:40:08;9.00;99.90
36132;DHT22;22185;48.738;9.324;2023-04-03T13:42:22;9.10;99.90
36132;DHT22;22185;48.738;9.324;2023-04-03T13:44:32;8.90;99.90
36132;DHT22;22185;48.738;9.324;2023-04-03T13:46:33;8.70;99.90
36132;DHT22;22185;48.738;9.324;2023-04-03T13:48:40;8.90;99.90
36132;DHT22;22185;48.738;9.324;2023-04-03T13:50:51;8.90;99.90
36132;DHT22;22185;48.738;9.324;2023-04-03T13:52:55;8.90;99.90
36132;DHT22;22185;48.738;9.324;2023-04-03T13:55:02;9.00;99.90
36132;DHT22;22185;48.738;9.324;2023-04-03T13:57:11;8.80;99.90
36132;DHT22;22185;48.738;9.324;2023-04-03T14:01:18;8.80;99.90
36132;DHT22;22185;48.738;9.324;2023-04-03T14:05:24;8.70;99.90
36132;DHT22;22185;48.738;9.324;2023-04-03T14:07:27;8.60;99.90
36132;DHT22;22185;48.738;9.324;2023-04-03T14:09:29;8.60;99.90
36132;DHT22;22185;48.738;9.324;2023-04-03T14:11:31;8.70;99.90
36132;DHT22;22185;48.738;9.324;2023-04-03T14:13:33;8.60;99.90
36132;DHT22;22185;48.738;9.324;2023-04-03T14:15:34;8.60;99.90
36132;DHT22;22185;48.738;9.324;2023-04-03T14:17:37;8.60;99.90
36132;DHT22;22185;48.738;9.324;2023-04-03T14:19:39;8.70;99.90
36132;DHT22;22185;48.738;9.324;2023-04-03T14:21:41;8.90;99.90
36132;DHT22;22185;48.738;9.324;2023-04-03T14:23:43;9.10;99.90
36132;DHT22;22185;48.738;9.324;2023-04-03T14:25:45;10.90;99.90
36132;DHT22;22185;48.738;9.324;2023-04-03T14:27:48;14.60;99.90
36132;DHT22;22185;48.738;9.324;2023-04-03T14:29:51;16.00;93.10
36132;DHT22;22185;48.738;9.324;2023-04-03T14:31:53;17.20;94.40
36132;DHT22;22185;48.738;9.324;2023-04-03T14:34:14;17.80;89.60
36132;DHT22;22185;48.738;9.324;2023-04-03T14:36:18;16.50;90.20
36132;DHT22;22185;48.738;9.324;2023-04-03T14:38:23;13.50;92.50
36132;DHT22;22185;48.738;9.324;2023-04-03T14:40:26;11.60;95.90
36132;DHT22;22185;48.738;9.324;2023-04-03T14:42:29;10.80;99.20
36132;DHT22;22185;48.738;9.324;2023-04-03T14:44:32;9.90;99.90
36132;DHT22;22185;48.738;9.324;2023-04-03T14:46:37;8.70;99.90
36132;DHT22;22185;48.738;9.324;2023-04-03T14:48:56;8.70;99.90
36132;DHT22;22185;48.738;9.324;2023-04-03T14:50:58;8.90;99.90
36132;DHT22;22185;48.738;9.324;2023-04-03T14:53:06;9.10;99.90
36132;DHT22;22185;48.738;9.324;2023-04-03T14:55:09;9.30;99.90
36132;DHT22;22185;48.738;9.324;2023-04-03T14:57:13;9.30;99.90
36132;DHT22;22185;48.738;9.324;2023-04-03T14:59:16;9.60;99.90
36132;DHT22;22185;48.738;9.324;2023-04-03T15:01:19;9.40;99.90
36132;DHT22;22185;48.738;9.324;2023-04-03T15:03:21;9.30;99.90
36132;DHT22;22185;48.738;9.324;2023-04-03T15:05:23;9.50;99.90
36132;DHT22;22185;48.738;9.324;2023-04-03T15:07:25;9.60;99.90